Flight Track Log - Related Links

Times and Time Zones

All times are in EDT time to prevent confusion due to time zone crossing. See the N7790J flight status page for this flight to view local times or setup timezone preferences in your user account.

Time Position Orientation Groundspeed Altitude Reporting Facility
EDT Latitude Longitude Course Direction KTS MPH feet Rate Location/Type
Mon 06:35:19 AM 43.3114 -73.6042 171° South 109 125 1,400  Level Boston Center
Mon 06:36:38 AM 43.2700 -73.5950 171° South 117 135 2,700 1,000 Climbing Boston Center
Mon 06:37:43 AM 43.2633 -73.6289 255° West 101 116 3,800 1,048 Climbing Boston Center
Mon 06:38:44 AM 43.2650 -73.6689 273° West 102 117 4,900 1,034 Climbing Boston Center
Mon 06:39:39 AM 43.2583 -73.7058 256° West 117 135 5,800 931 Climbing Boston Center
Mon 06:40:40 AM 43.2494 -73.7569 257° West 121 139 6,700 938 Climbing Boston Center
Mon 06:41:47 AM 43.2425 -73.8111 260° West 125 144 7,800 992 Climbing Boston Center
Mon 06:42:47 AM 43.2358 -73.8536 258° West 127 146 8,800 942 Climbing Boston Center
Mon 06:43:48 AM 43.2289 -73.9047 259° West 132 152 9,700 639 Climbing Boston Center
Mon 06:44:49 AM 43.2197 -73.9558 256° West 144 166 10,100 149 Climbing Boston Center
Mon 06:45:49 AM 43.2106 -74.0211 259° West 174 200 10,000  Descending Boston Center
Mon 06:46:50 AM 43.1806 -74.0772 234° Southwest 191 220 10,100 50 Climbing Boston Center
Mon 06:47:49 AM 43.1425 -74.1219 221° Southwest 184 212 10,100  Level Boston Center
Mon 06:48:50 AM 43.1022 -74.1661 219° Southwest 182 209 10,100  Level Boston Center
Mon 06:49:52 AM 43.0950 -74.2256 261° West 158 182 10,100 -49 Level Boston Center
Mon 06:50:52 AM 43.0919 -74.2853 266° West 153 176 10,000 -53 Descending Boston Center
Mon 06:51:46 AM 43.0539 -74.3183 212° Southwest 181 208 10,000  Level Boston Center
Mon 06:52:28 AM 43.0203 -74.3428 208° Southwest 190 219 10,000  Level Boston Center
Mon 06:53:30 AM 42.9881 -74.3872 225° Southwest 172 198 10,000  Level Boston Center
Mon 06:54:30 AM 42.9561 -74.4400 230° Southwest 171 197 10,000 -50 Level Boston Center
Mon 06:55:30 AM 42.9653 -74.4972 282° West 152 175 9,900 -50 Descending Boston Center
Mon 06:56:31 AM 42.9747 -74.5600 282° West 154 177 9,900  Level Boston Center
Mon 06:57:32 AM 42.9819 -74.6142 280° West 155 178 9,900 49 Level Boston Center
Mon 06:58:33 AM 42.9892 -74.6711 280° West 153 176 10,000  Climbing Boston Center
Mon 06:59:34 AM 42.9944 -74.7281 277° West 149 171 9,900  Descending Boston Center
Mon 07:00:34 AM 42.9911 -74.7847 265° West 162 186 10,000 50 Climbing Boston Center
Mon 07:01:35 AM 42.9628 -74.8406 235° Southwest 183 211 10,000 -49 Level Boston Center
Mon 07:02:36 AM 42.9306 -74.8875 227° Southwest 180 207 9,900  Descending Boston Center
Mon 07:03:36 AM 42.9106 -74.9489 246° West 161 185 10,000  Climbing Boston Center
Mon 07:04:37 AM 42.9239 -75.0033 289° West 144 166 9,900 -50 Descending Boston Center
Mon 07:05:37 AM 42.9353 -75.0522 288° West 145 167 9,900  Level Boston Center
Mon 07:06:38 AM 42.9444 -75.1092 282° West 147 169 9,900 49 Level Boston Center
Mon 07:07:39 AM 42.9472 -75.1661 274° West 156 180 10,000  Climbing Boston Center
Mon 07:08:39 AM 42.9542 -75.2258 279° West 158 182 9,900  Descending Boston Center
Mon 07:09:40 AM 42.9567 -75.2856 273° West 154 177 10,000 50 Climbing Boston Center
Mon 07:10:40 AM 42.9614 -75.3456 276° West 152 175 10,000  Level Boston Center
Mon 07:11:42 AM 42.9683 -75.4053 279° West 152 175 10,000  Level Boston Center
Mon 07:12:42 AM 42.9708 -75.4622 273° West 154 177 10,000  Level Boston Center
Mon 07:13:43 AM 42.9756 -75.5194 276° West 157 181 10,000  Level Boston Center
Mon 07:14:43 AM 42.9783 -75.5761 274° West 157 181 10,000  Level Boston Center
Mon 07:15:42 AM 42.9828 -75.6361 276° West 157 181 10,000  Level Boston Center
Mon 07:16:42 AM 42.9875 -75.6958 276° West 157 181 10,000  Level Boston Center
Mon 07:17:43 AM 42.9919 -75.7531 276° West 156 180 10,000  Level Boston Center
Mon 07:18:46 AM 42.9964 -75.8158 276° West 155 178 10,000  Level Boston Center
Mon 07:19:47 AM 43.0008 -75.8756 276° West 154 177 10,000  Level Boston Center
Mon 07:20:47 AM 43.0056 -75.9325 276° West 154 177 10,000  Level Boston Center
Mon 07:21:48 AM 43.0097 -75.9925 275° West 154 177 10,000  Level Boston Center
Mon 07:22:48 AM 43.0144 -76.0494 276° West 152 175 10,000  Level Boston Center
Mon 07:23:48 AM 43.0186 -76.1094 275° West 155 178 10,000  Level Boston Center
Mon 07:24:49 AM 43.0211 -76.1664 273° West 156 180 10,000  Level Boston Center
Mon 07:25:49 AM 43.0253 -76.2264 275° West 156 180 10,000  Level Boston Center
Mon 07:26:50 AM 43.0297 -76.2836 276° West 154 177 10,000  Level Boston Center
Mon 07:27:52 AM 43.0339 -76.3433 275° West 154 177 10,000  Level Boston Center
Mon 07:28:51 AM 43.0378 -76.4061 275° West 156 180 10,000  Level Boston Center
Mon 07:29:51 AM 43.0419 -76.4661 275° West 157 181 10,000  Level Boston Center
Mon 07:30:51 AM 43.0464 -76.5233 276° West 155 178 10,000  Level Boston Center
Mon 07:33:01 AM 43.0539 -76.6450 275° West 154 177 10,000  Level Cleveland Center
Mon 07:34:02 AM 43.0581 -76.7072 275° West 155 178 10,000  Level Cleveland Center
Mon 07:34:56 AM 43.0597 -76.7611 272° West 153 176 10,000  Level Cleveland Center
Mon 07:35:57 AM 43.0658 -76.8175 278° West 155 178 10,000  Level Cleveland Center
Mon 07:36:58 AM 43.0678 -76.8772 273° West 155 178 10,000  Level Cleveland Center
Mon 07:37:58 AM 43.0719 -76.9422 275° West 157 181 10,000  Level Cleveland Center
Mon 07:38:59 AM 43.0778 -76.9989 278° West 155 178 10,000  Level Cleveland Center
Mon 07:39:59 AM 43.0797 -77.0583 273° West 156 180 10,000  Level Cleveland Center
Mon 07:41:00 AM 43.0836 -77.1178 275° West 155 178 10,000  Level Cleveland Center
Mon 07:42:07 AM 43.0875 -77.1831 275° West 155 178 10,000  Level Cleveland Center
Mon 07:43:07 AM 43.0914 -77.2369 276° West 154 177 10,000  Level Cleveland Center
Mon 07:44:02 AM 43.0928 -77.2936 272° West 155 178 10,000  Level Cleveland Center
Mon 07:45:03 AM 43.0819 -77.3511 256° West 154 177 10,000  Level Cleveland Center
Mon 07:46:03 AM 43.0731 -77.4056 257° West 157 181 10,000  Level Cleveland Center
Mon 07:47:04 AM 43.0581 -77.4689 252° West 156 180 10,000  Level Cleveland Center
Mon 07:48:04 AM 43.0472 -77.5233 255° West 153 176 10,000  Level Cleveland Center
Mon 07:49:05 AM 43.0383 -77.5836 259° West 157 181 10,000  Level Cleveland Center
Mon 07:50:06 AM 43.0272 -77.6408 255° West 158 182 10,000  Level Cleveland Center
Mon 07:51:06 AM 43.0161 -77.6983 255° West 152 175 10,000 -29 Level Cleveland Center
Mon 07:53:34 AM 42.9833 -77.8167 249° West 150 173 9,900 -29 Descending Toronto Center
Mon 07:54:34 AM 42.9667 -77.8500 236° Southwest 160 184 9,900  Level Toronto Center
Mon 07:55:34 AM 42.9500 -77.9167 251° West 160 184 9,900  Level Toronto Center
Mon 07:56:34 AM 42.9500 -77.9667 270° West 150 173 9,900  Level Toronto Center
Mon 07:57:34 AM 42.9333 -78.0333 251° West 150 173 9,900  Level Toronto Center
Mon 07:58:34 AM 42.9333 -78.0833 270° West 150 173 9,900  Level Toronto Center
Mon 07:59:34 AM 42.9167 -78.1500 251° West 150 173 9,900  Level Toronto Center
Mon 08:00:34 AM 42.9000 -78.2000 246° West 140 161 9,900  Level Toronto Center
Mon 08:01:34 AM 42.9167 -78.2500 294° West 150 173 9,900  Level Toronto Center
Mon 08:02:34 AM 42.9000 -78.3167 251° West 140 161 9,900  Level Toronto Center
Mon 08:03:34 AM 42.9167 -78.3667 294° West 140 161 9,900 54 Level Toronto Center
Mon 08:04:25 AM 42.9667 -78.4167 324° Northwest 140 161 10,000 54 Climbing Buffalo TRACON
Mon 08:05:25 AM 42.9833 -78.4667 295° West 139 160 10,000  Level Buffalo TRACON
Mon 08:06:25 AM 43.0000 -78.5000 304° West 137 158 10,000  Level Buffalo TRACON
Mon 08:07:26 AM 43.0167 -78.5500 295° West 136 157 10,000  Level Buffalo TRACON
Mon 08:08:26 AM 43.0333 -78.6000 295° West 133 153 10,000 50 Level Buffalo TRACON
Mon 08:09:26 AM 43.0500 -78.6500 295° West 134 154 10,100 50 Climbing Buffalo TRACON
Mon 08:10:26 AM 43.0667 -78.6833 304° West 144 166 10,100 -150 Level Buffalo TRACON
Mon 08:11:26 AM 43.1167 -78.6833 360° North 162 186 9,800 -550 Descending Buffalo TRACON
Mon 08:12:26 AM 43.1500 -78.7000 340° North 161 185 9,000 -800 Descending Buffalo TRACON
Mon 08:13:26 AM 43.2000 -78.7000 360° North 152 175 8,200 -800 Descending Buffalo TRACON
Mon 08:14:26 AM 43.2333 -78.7167 340° North 145 167 7,400 -844 Descending Buffalo TRACON
Mon 08:15:34 AM 43.2833 -78.7167 360° North 150 173 6,400 -844 Descending Toronto Center
Mon 08:16:34 AM 43.3167 -78.7167 360° North 150 173 5,600 -700 Descending Toronto Center
Mon 08:17:34 AM 43.3667 -78.7333 346° North 150 173 5,000 -300 Descending Toronto Center
Mon 08:18:34 AM 43.3833 -78.7667 305° West 130 150 5,000  Level Toronto Center
Mon 08:19:34 AM 43.4167 -78.7833 340° North 130 150 5,000  Level Toronto Center
Mon 08:20:34 AM 43.4500 -78.8000 340° North 130 150 5,000  Level Toronto Center
Mon 08:21:34 AM 43.4833 -78.8333 324° Northwest 130 150 5,000  Level Toronto Center
Mon 08:22:34 AM 43.5167 -78.8500 340° North 130 150 5,000  Level Toronto Center
Mon 08:23:34 AM 43.5500 -78.8667 340° North 130 150 5,000 -250 Level Toronto Center
Mon 08:24:34 AM 43.5833 -78.8500 20° North 150 173 4,500 -500 Descending Toronto Center
Mon 08:25:34 AM 43.6167 -78.8333 20° North 160 184 4,000 -550 Descending Toronto Center
Mon 08:26:34 AM 43.6500 -78.7833 47° Northeast 170 196 3,400 -500 Descending Toronto Center
Mon 08:27:34 AM 43.7000 -78.7333 36° Northeast 170 196 3,000 -200 Descending Toronto Center
Mon 08:28:34 AM 43.7333 -78.7167 20° North 160 184 3,000  Level Toronto Center
Mon 08:29:34 AM 43.7667 -78.6833 36° Northeast 150 173 3,000 -300 Level Toronto Center
Mon 08:30:34 AM 43.8167 -78.6667 14° North 150 173 2,400 -450 Descending Toronto Center
Mon 08:31:34 AM 43.8500 -78.6333 36° Northeast 150 173 2,100 -150 Descending Toronto Center
Mon 08:32:34 AM 43.8667 -78.6833 295° West 120 138 2,100  Level Toronto Center
Mon 08:33:34 AM 43.8667 -78.7000 270° West 100 115 2,100  Level Toronto Center
Mon 08:34:34 AM 43.8833 -78.7500 295° West 100 115 2,100 -100 Level Toronto Center
Mon 08:35:34 AM 43.9000 -78.8000 295° West 110 127 1,900 -350 Descending Toronto Center
Mon 08:36:34 AM 43.9000 -78.8167 270° West 90 104 1,400 -450 Descending Toronto Center
Mon 08:37:34 AM 43.9167 -78.8500 305° West 80 92 1,000 -400 Descending Toronto Center

Login

Don't have an account? Register now (free) for customized features, flight alerts, and more!